createdAt,value
2022-12-01T00:01:20.301Z,9.23
2022-12-01T00:03:47.862Z,8.43
2022-12-01T00:06:20.759Z,8.40
2022-12-01T00:09:08.460Z,9.70
2022-12-01T00:11:36.948Z,7.70
2022-12-01T00:14:04.567Z,9.03
2022-12-01T00:16:31.798Z,9.40
2022-12-01T00:18:59.141Z,8.77
2022-12-01T00:21:27.176Z,8.83
2022-12-01T00:23:56.267Z,8.63
2022-12-01T00:26:24.308Z,8.70
2022-12-01T00:28:53.128Z,9.30
2022-12-01T00:31:20.990Z,7.67
2022-12-01T00:33:47.930Z,7.47
2022-12-01T00:36:14.986Z,8.60
2022-12-01T00:38:41.897Z,8.60
2022-12-01T00:41:08.824Z,8.23
2022-12-01T00:43:35.732Z,8.50
2022-12-01T00:46:02.683Z,8.00
2022-12-01T00:48:29.635Z,7.20
2022-12-01T00:50:56.545Z,7.87
2022-12-01T00:53:24.756Z,11.27
2022-12-01T00:55:53.978Z,8.00
2022-12-01T00:58:21.654Z,7.97
2022-12-01T01:00:49.086Z,8.07
2022-12-01T01:03:16.117Z,8.13
2022-12-01T01:05:43.986Z,7.20
2022-12-01T01:08:13.560Z,7.77
2022-12-01T01:10:42.273Z,7.60
2022-12-01T01:13:09.393Z,7.47
2022-12-01T01:15:36.760Z,7.97
2022-12-01T01:18:05.025Z,7.40
2022-12-01T01:20:34.233Z,7.73
2022-12-01T01:23:01.051Z,7.50
2022-12-01T01:25:27.940Z,7.50
2022-12-01T01:27:54.974Z,7.50
2022-12-01T01:30:22.109Z,7.20
2022-12-01T01:32:49.000Z,6.87
2022-12-01T01:35:15.820Z,7.07
2022-12-01T01:37:42.640Z,7.03
2022-12-01T01:40:10.147Z,7.57
2022-12-01T01:42:36.989Z,7.50
2022-12-01T01:45:03.935Z,8.23
2022-12-01T01:47:37.311Z,7.60
2022-12-01T01:50:16.356Z,7.03
2022-12-01T01:52:51.180Z,7.40
2022-12-01T01:55:18.536Z,6.87
2022-12-01T01:57:45.916Z,7.50
2022-12-01T02:00:17.390Z,6.80
2022-12-01T02:02:46.484Z,6.73
2022-12-01T02:05:22.726Z,6.83
2022-12-01T02:07:51.971Z,6.80
2022-12-01T02:10:23.608Z,7.07
2022-12-01T02:13:16.042Z,6.60
2022-12-01T02:15:54.874Z,8.27
2022-12-01T02:18:51.733Z,6.77
2022-12-01T02:21:40.290Z,7.30
2022-12-01T02:24:07.056Z,7.30
2022-12-01T02:26:47.247Z,8.20
2022-12-01T02:29:41.111Z,6.80
2022-12-01T02:32:32.905Z,7.07
2022-12-01T02:35:28.875Z,8.17
2022-12-01T02:38:07.840Z,6.43
2022-12-01T02:40:46.897Z,7.20
2022-12-01T02:43:35.170Z,6.97
2022-12-01T02:46:10.972Z,6.73
2022-12-01T02:48:41.272Z,6.30
2022-12-01T02:51:18.490Z,6.70
2022-12-01T02:53:45.468Z,7.27
2022-12-01T02:56:14.804Z,7.13
2022-12-01T02:58:43.398Z,6.93
2022-12-01T03:01:24.410Z,6.63
2022-12-01T03:04:18.648Z,6.23
2022-12-01T03:07:08.602Z,6.70
2022-12-01T03:10:15.820Z,7.03
2022-12-01T03:12:45.680Z,6.60
2022-12-01T03:15:31.233Z,6.63
2022-12-01T03:18:10.056Z,7.03
2022-12-01T03:21:24.154Z,6.40
2022-12-01T03:23:56.744Z,6.47
2022-12-01T03:26:25.465Z,7.17
2022-12-01T03:28:56.673Z,6.83
2022-12-01T03:31:28.947Z,6.77
2022-12-01T03:34:01.020Z,8.00
2022-12-01T03:36:36.404Z,7.17
2022-12-01T03:39:12.682Z,6.87
2022-12-01T03:41:45.480Z,7.30
2022-12-01T03:44:19.174Z,8.20
2022-12-01T03:46:59.456Z,8.00
2022-12-01T03:49:27.027Z,6.43
2022-12-01T03:51:59.847Z,6.90
2022-12-01T03:54:38.601Z,6.87
2022-12-01T03:57:11.307Z,7.70
2022-12-01T03:59:40.782Z,7.40
2022-12-01T04:02:08.608Z,6.57
2022-12-01T04:04:35.781Z,7.60
2022-12-01T04:07:02.642Z,7.30
2022-12-01T04:09:29.619Z,7.33
2022-12-01T04:12:15.339Z,7.40
2022-12-01T04:14:42.135Z,6.97
2022-12-01T04:17:08.962Z,7.20
2022-12-01T04:19:35.835Z,7.23
2022-12-01T04:22:03.764Z,7.70
2022-12-01T04:24:30.662Z,7.67
2022-12-01T04:26:57.538Z,7.37
2022-12-01T04:29:24.667Z,7.23
2022-12-01T04:31:51.738Z,6.90
2022-12-01T04:34:18.634Z,8.30
2022-12-01T04:36:45.503Z,7.23
2022-12-01T04:39:12.421Z,7.70
2022-12-01T04:41:39.462Z,8.90
2022-12-01T04:44:06.371Z,7.50
2022-12-01T04:46:34.448Z,7.00
2022-12-01T04:49:01.361Z,7.33
2022-12-01T04:51:28.333Z,7.30
2022-12-01T04:53:55.116Z,7.60
2022-12-01T04:56:22.036Z,6.87
2022-12-01T04:58:49.087Z,7.20
2022-12-01T05:01:18.247Z,7.73
2022-12-01T05:03:49.643Z,9.37
2022-12-01T05:06:19.514Z,7.33
2022-12-01T05:08:46.654Z,7.17
2022-12-01T05:11:14.744Z,8.67
2022-12-01T05:13:44.891Z,13.07
2022-12-01T05:16:13.377Z,12.50
2022-12-01T05:18:41.126Z,9.30
2022-12-01T05:21:10.582Z,8.30
2022-12-01T05:23:39.212Z,7.80
2022-12-01T05:26:08.431Z,10.27
2022-12-01T05:28:36.016Z,8.83
2022-12-01T05:31:03.786Z,10.77
2022-12-01T05:33:31.002Z,7.93
2022-12-01T05:35:57.834Z,8.00
2022-12-01T05:38:25.009Z,8.57
2022-12-01T05:40:53.762Z,9.80
2022-12-01T05:43:28.319Z,8.80
2022-12-01T05:45:57.051Z,8.33
2022-12-01T05:48:24.556Z,9.03
2022-12-01T05:50:51.352Z,8.40
2022-12-01T05:53:19.444Z,8.83
2022-12-01T05:55:46.659Z,8.80
2022-12-01T05:58:13.698Z,8.47
2022-12-01T06:00:45.699Z,10.07
2022-12-01T06:03:13.112Z,8.47
2022-12-01T06:05:40.214Z,9.60
2022-12-01T06:08:07.585Z,8.63
2022-12-01T06:10:34.724Z,11.10
2022-12-01T06:13:01.516Z,9.30
2022-12-01T06:15:28.343Z,10.30
2022-12-01T06:17:55.205Z,8.37
2022-12-01T06:20:23.455Z,9.73
2022-12-01T06:22:50.295Z,9.97
2022-12-01T06:25:17.343Z,10.57
2022-12-01T06:27:44.209Z,9.60
2022-12-01T06:30:11.203Z,9.40
2022-12-01T06:32:38.689Z,12.40
2022-12-01T06:35:05.849Z,10.50
2022-12-01T06:37:32.726Z,10.73
2022-12-01T06:39:59.558Z,10.17
2022-12-01T06:42:29.928Z,10.50
2022-12-01T06:44:56.703Z,11.83
2022-12-01T06:47:23.524Z,12.50
2022-12-01T06:49:50.934Z,11.57
2022-12-01T06:52:18.170Z,10.40
2022-12-01T06:54:44.997Z,11.13
2022-12-01T06:57:12.126Z,12.07
2022-12-01T06:59:39.181Z,13.57
2022-12-01T07:02:06.252Z,11.90
2022-12-01T07:04:33.201Z,13.97
2022-12-01T07:07:00.004Z,12.17
2022-12-01T07:09:26.820Z,12.83
2022-12-01T07:11:53.635Z,14.07
2022-12-01T07:14:24.050Z,15.40
2022-12-01T07:16:51.392Z,14.83
2022-12-01T07:19:18.708Z,13.70
2022-12-01T07:21:45.765Z,13.77
2022-12-01T07:24:12.813Z,15.60
2022-12-01T07:26:41.299Z,15.50
2022-12-01T07:29:09.401Z,16.00
2022-12-01T07:31:37.810Z,15.90
2022-12-01T07:34:05.748Z,16.10
2022-12-01T07:36:33.019Z,18.03
2022-12-01T07:39:00.000Z,17.27
2022-12-01T07:41:26.826Z,21.87
2022-12-01T07:43:55.622Z,16.80
2022-12-01T07:46:25.416Z,16.90
2022-12-01T07:48:53.792Z,16.70
2022-12-01T07:51:21.914Z,18.40
2022-12-01T07:53:50.208Z,15.67
2022-12-01T07:56:18.427Z,17.93
2022-12-01T07:58:45.366Z,17.37
2022-12-01T08:01:18.078Z,17.00
2022-12-01T08:03:45.104Z,16.63
2022-12-01T08:06:12.603Z,18.20
2022-12-01T08:08:41.311Z,16.83
2022-12-01T08:11:12.400Z,15.90
2022-12-01T08:13:40.551Z,15.80
2022-12-01T08:16:09.360Z,16.10
2022-12-01T08:18:37.862Z,15.80
2022-12-01T08:21:06.771Z,15.67
2022-12-01T08:23:33.670Z,15.90
2022-12-01T08:26:02.314Z,17.37
2022-12-01T08:28:29.416Z,17.13
2022-12-01T08:30:56.565Z,18.30
2022-12-01T08:33:24.198Z,18.07
2022-12-01T08:35:51.143Z,16.93
2022-12-01T08:38:18.041Z,17.87
2022-12-01T08:40:44.890Z,16.23
2022-12-01T08:43:23.057Z,16.93
2022-12-01T08:46:02.793Z,16.57
2022-12-01T08:48:30.199Z,18.10
2022-12-01T08:51:12.220Z,17.13
2022-12-01T08:53:45.426Z,15.73
2022-12-01T08:56:25.528Z,17.80
2022-12-01T08:58:53.610Z,17.60
2022-12-01T09:01:21.071Z,18.67
2022-12-01T09:03:48.053Z,16.83
2022-12-01T09:06:17.758Z,17.77
2022-12-01T09:08:44.809Z,17.90
2022-12-01T09:11:15.212Z,17.70
2022-12-01T09:13:43.373Z,17.33
2022-12-01T09:16:15.360Z,19.13
2022-12-01T09:18:43.161Z,19.97
2022-12-01T09:21:15.071Z,24.17
2022-12-01T09:23:42.641Z,23.70
2022-12-01T09:26:13.558Z,18.50
2022-12-01T09:28:40.866Z,20.43
2022-12-01T09:31:11.793Z,20.20
2022-12-01T09:33:39.889Z,19.37
2022-12-01T09:36:08.365Z,22.47
2022-12-01T09:38:36.377Z,23.07
2022-12-01T09:41:12.234Z,20.47
2022-12-01T09:44:17.307Z,22.10
2022-12-01T09:46:49.097Z,22.10
2022-12-01T09:49:23.073Z,22.33
2022-12-01T09:51:54.516Z,29.63
2022-12-01T09:54:21.730Z,34.00
2022-12-01T09:56:53.359Z,35.70
2022-12-01T09:59:25.471Z,39.23
2022-12-01T10:02:00.346Z,34.13
2022-12-01T10:04:38.280Z,34.83
2022-12-01T10:07:39.755Z,38.80
2022-12-01T10:10:28.982Z,36.73
2022-12-01T10:12:56.202Z,34.93
2022-12-01T10:15:38.810Z,37.87
2022-12-01T10:18:10.851Z,32.97
2022-12-01T10:21:16.056Z,42.73
2022-12-01T10:23:54.985Z,38.60
2022-12-01T10:26:37.280Z,46.57
2022-12-01T10:29:12.800Z,41.87
2022-12-01T10:31:56.024Z,32.13
2022-12-01T10:34:33.885Z,34.13
2022-12-01T10:37:01.329Z,31.17
2022-12-01T10:39:39.658Z,28.47
2022-12-01T10:42:12.579Z,27.83
2022-12-01T10:44:40.474Z,26.77
2022-12-01T10:47:24.301Z,25.33
2022-12-01T10:49:52.086Z,27.13
2022-12-01T10:52:41.118Z,24.23
2022-12-01T10:55:23.137Z,24.23
2022-12-01T10:57:50.685Z,23.90
2022-12-01T11:00:57.875Z,18.77
2022-12-01T11:03:22.321Z,25.23
2022-12-01T11:05:58.154Z,18.37
2022-12-01T11:08:47.220Z,22.13
2022-12-01T11:11:36.085Z,19.53
2022-12-01T11:14:07.593Z,22.37
2022-12-01T11:16:40.323Z,20.70
2022-12-01T11:19:25.325Z,20.13
2022-12-01T11:22:02.306Z,18.00
2022-12-01T11:25:05.626Z,19.57
2022-12-01T11:27:36.471Z,18.27
2022-12-01T11:30:25.991Z,18.00
2022-12-01T11:33:01.113Z,21.63
2022-12-01T11:35:35.194Z,19.70
2022-12-01T11:38:28.694Z,17.80
2022-12-01T11:40:54.134Z,18.57
2022-12-01T11:43:35.174Z,28.80
2022-12-01T11:46:07.984Z,24.67
2022-12-01T11:48:36.379Z,18.43
2022-12-01T11:51:26.695Z,17.33
2022-12-01T11:54:11.886Z,18.20
2022-12-01T11:56:38.798Z,17.47
2022-12-01T11:59:18.146Z,16.60
2022-12-01T12:02:09.230Z,18.13
2022-12-01T12:04:55.558Z,16.93
2022-12-01T12:07:47.852Z,16.03
2022-12-01T12:10:23.769Z,17.23
2022-12-01T12:13:05.536Z,17.33
2022-12-01T12:16:00.997Z,17.53
2022-12-01T12:18:58.317Z,17.97
2022-12-01T12:21:41.458Z,18.87
2022-12-01T12:24:29.367Z,17.43
2022-12-01T12:27:31.197Z,18.20
2022-12-01T12:30:24.355Z,14.50
2022-12-01T12:33:06.431Z,18.20
2022-12-01T12:36:05.130Z,16.13
2022-12-01T12:38:50.340Z,14.33
2022-12-01T12:41:37.259Z,15.80
2022-12-01T12:44:22.580Z,15.67
2022-12-01T12:47:25.801Z,17.17
2022-12-01T12:50:07.419Z,17.83
2022-12-01T12:52:41.904Z,16.07
2022-12-01T12:55:39.876Z,15.53
2022-12-01T12:58:29.252Z,15.03
2022-12-01T13:01:01.928Z,15.83
2022-12-01T13:03:52.791Z,16.90
2022-12-01T13:06:28.012Z,15.30
2022-12-01T13:09:08.062Z,15.53
2022-12-01T13:12:04.011Z,17.97
2022-12-01T13:14:40.478Z,15.37
2022-12-01T13:17:20.966Z,14.27
2022-12-01T13:19:48.716Z,14.20
2022-12-01T13:22:18.995Z,15.83
2022-12-01T13:24:46.185Z,17.37
2022-12-01T13:27:19.245Z,15.63
2022-12-01T13:29:49.712Z,16.13
2022-12-01T13:32:31.561Z,15.37
2022-12-01T13:34:59.582Z,15.47
2022-12-01T13:37:32.037Z,15.33
2022-12-01T13:40:25.826Z,14.70
2022-12-01T13:43:06.997Z,15.33
2022-12-01T13:45:38.398Z,14.60
2022-12-01T13:48:06.662Z,15.00
2022-12-01T13:50:36.427Z,14.30
2022-12-01T13:53:25.344Z,14.07
2022-12-01T13:56:04.011Z,15.77
2022-12-01T13:58:33.527Z,14.27
2022-12-01T14:01:22.814Z,16.30
2022-12-01T14:04:02.753Z,15.53
2022-12-01T14:06:46.850Z,14.17
2022-12-01T14:09:26.497Z,14.60
2022-12-01T14:12:02.111Z,14.13
2022-12-01T14:14:36.423Z,14.60
2022-12-01T14:17:04.608Z,16.70
2022-12-01T14:19:40.708Z,13.63
2022-12-01T14:22:28.069Z,13.43
2022-12-01T14:24:55.964Z,13.40
2022-12-01T14:27:37.894Z,14.00
2022-12-01T14:30:47.975Z,13.87
2022-12-01T14:33:39.676Z,13.80
2022-12-01T14:36:25.393Z,14.37
2022-12-01T14:39:03.639Z,14.37
2022-12-01T14:42:03.041Z,14.13
2022-12-01T14:44:36.045Z,14.93
2022-12-01T14:47:17.416Z,13.43
2022-12-01T14:49:59.826Z,13.60
2022-12-01T14:52:29.441Z,15.67
2022-12-01T14:54:59.120Z,13.00
2022-12-01T14:57:34.558Z,13.60
2022-12-01T15:00:11.132Z,13.70
2022-12-01T15:02:57.877Z,13.77
2022-12-01T15:05:31.080Z,12.47
2022-12-01T15:08:33.269Z,13.83
2022-12-01T15:11:11.089Z,13.03
2022-12-01T15:14:24.568Z,13.03
2022-12-01T15:16:52.372Z,13.30
2022-12-01T15:19:32.018Z,14.30
2022-12-01T15:22:03.754Z,13.17
2022-12-01T15:24:31.089Z,13.63
2022-12-01T15:27:03.684Z,12.70
2022-12-01T15:29:37.269Z,13.20
2022-12-01T15:32:08.833Z,13.07
2022-12-01T15:34:42.267Z,13.77
2022-12-01T15:37:25.040Z,13.37
2022-12-01T15:43:16.601Z,13.27
2022-12-01T15:45:56.618Z,13.47
2022-12-01T15:48:35.331Z,14.30
2022-12-01T15:51:16.906Z,13.33
2022-12-01T15:53:59.635Z,14.60
2022-12-01T15:56:38.537Z,13.10
2022-12-01T15:59:14.501Z,12.83
2022-12-01T16:01:43.750Z,12.67
2022-12-01T16:04:24.421Z,13.17
2022-12-01T16:06:56.699Z,12.83
2022-12-01T16:09:29.004Z,12.93
2022-12-01T16:12:14.625Z,13.80
2022-12-01T16:14:55.050Z,13.67
2022-12-01T16:17:23.531Z,12.93
2022-12-01T16:20:22.566Z,12.93
2022-12-01T16:22:56.749Z,13.33
2022-12-01T16:25:43.507Z,13.03
2022-12-01T16:28:25.539Z,13.60
2022-12-01T16:30:53.529Z,12.30
2022-12-01T16:33:26.301Z,13.57
2022-12-01T16:35:53.949Z,13.83
2022-12-01T16:38:25.544Z,13.17
2022-12-01T16:40:58.116Z,13.27
2022-12-01T16:43:26.213Z,13.67
2022-12-01T16:46:03.259Z,13.27
2022-12-01T16:48:31.332Z,13.60
2022-12-01T16:51:03.467Z,12.60
2022-12-01T16:53:30.351Z,12.67
2022-12-01T16:55:59.866Z,12.57
2022-12-01T16:58:27.248Z,13.20
2022-12-01T17:00:54.786Z,13.37
2022-12-01T17:03:24.330Z,11.50
2022-12-01T17:05:52.012Z,12.73
2022-12-01T17:08:19.519Z,12.70
2022-12-01T17:10:50.338Z,11.60
2022-12-01T17:13:19.259Z,13.33
2022-12-01T17:15:48.776Z,12.47
2022-12-01T17:18:17.087Z,11.70
2022-12-01T17:20:44.722Z,12.90
2022-12-01T17:23:12.250Z,11.40
2022-12-01T17:25:42.267Z,12.70
2022-12-01T17:28:09.066Z,14.60
2022-12-01T17:30:36.695Z,12.83
2022-12-01T17:33:03.573Z,12.27
2022-12-01T17:35:30.375Z,12.90
2022-12-01T17:37:57.183Z,12.43
2022-12-01T17:40:24.011Z,12.57
2022-12-01T17:42:51.195Z,11.93
2022-12-01T17:45:18.726Z,13.47
2022-12-01T17:47:45.839Z,14.47
2022-12-01T17:50:12.753Z,13.47
2022-12-01T17:52:39.805Z,16.00
2022-12-01T17:55:07.621Z,15.97
2022-12-01T17:57:34.533Z,16.50
2022-12-01T18:00:01.895Z,15.47
2022-12-01T18:02:29.175Z,15.23
2022-12-01T18:04:56.128Z,15.70
2022-12-01T18:07:23.178Z,17.40
2022-12-01T18:09:50.027Z,16.70
2022-12-01T18:12:16.898Z,17.53
2022-12-01T18:14:43.726Z,18.67
2022-12-01T18:17:10.557Z,18.10
2022-12-01T18:19:37.495Z,19.00
2022-12-01T18:22:04.317Z,21.87
2022-12-01T18:24:31.174Z,20.90
2022-12-01T18:26:58.009Z,22.30
2022-12-01T18:29:28.839Z,25.80
2022-12-01T18:31:59.768Z,24.27
2022-12-01T18:34:29.542Z,30.40
2022-12-01T18:36:57.117Z,28.23
2022-12-01T18:39:24.401Z,25.33
2022-12-01T18:41:51.350Z,26.20
2022-12-01T18:44:18.109Z,27.77
2022-12-01T18:46:45.094Z,23.97
2022-12-01T18:49:13.191Z,25.43
2022-12-01T18:51:40.226Z,27.87
2022-12-01T18:54:08.780Z,35.40
2022-12-01T18:56:36.170Z,25.47
2022-12-01T18:59:05.898Z,28.67
2022-12-01T19:01:36.571Z,24.70
2022-12-01T19:04:04.074Z,28.30
2022-12-01T19:06:32.706Z,24.33
2022-12-01T19:09:01.453Z,28.10
2022-12-01T19:11:29.344Z,27.57
2022-12-01T19:13:57.243Z,27.40
2022-12-01T19:16:24.569Z,27.20
2022-12-01T19:18:51.569Z,26.90
2022-12-01T19:21:20.224Z,23.60
2022-12-01T19:23:47.896Z,24.53
2022-12-01T19:26:19.172Z,26.67
2022-12-01T19:28:47.216Z,26.43
2022-12-01T19:31:23.590Z,24.73
2022-12-01T19:33:52.122Z,24.00
2022-12-01T19:36:21.933Z,22.80
2022-12-01T19:38:49.187Z,23.23
2022-12-01T19:41:20.442Z,21.57
2022-12-01T19:43:48.029Z,22.57
2022-12-01T19:46:20.967Z,25.67
2022-12-01T19:48:52.685Z,22.30
2022-12-01T19:51:22.044Z,22.77
2022-12-01T19:53:49.339Z,22.40
2022-12-01T19:56:16.292Z,20.80
2022-12-01T19:58:43.209Z,19.87
2022-12-01T20:01:12.813Z,20.60
2022-12-01T20:03:40.843Z,26.20
2022-12-01T20:06:10.761Z,20.10
2022-12-01T20:08:38.069Z,21.63
2022-12-01T20:11:06.473Z,22.57
2022-12-01T20:13:38.970Z,20.77
2022-12-01T20:16:13.226Z,22.57
2022-12-01T20:18:41.553Z,21.40
2022-12-01T20:21:17.523Z,18.77
2022-12-01T20:23:46.601Z,23.53
2022-12-01T20:26:15.188Z,20.10
2022-12-01T20:28:42.397Z,22.00
2022-12-01T20:31:16.030Z,17.80
2022-12-01T20:33:43.480Z,19.20
2022-12-01T20:36:10.999Z,18.30
2022-12-01T20:38:39.002Z,17.93
2022-12-01T20:41:06.809Z,18.07
2022-12-01T20:43:34.751Z,21.37
2022-12-01T20:46:02.776Z,20.17
2022-12-01T20:49:40.299Z,19.30
2022-12-01T20:52:09.273Z,19.27
2022-12-01T20:54:36.074Z,19.47
2022-12-01T20:57:03.046Z,16.77
2022-12-01T20:59:31.250Z,17.50
2022-12-01T21:01:58.099Z,16.90
2022-12-01T21:04:25.008Z,16.17
2022-12-01T21:06:55.995Z,18.03
2022-12-01T21:09:22.806Z,17.17
2022-12-01T21:12:09.457Z,17.00
2022-12-01T21:14:52.244Z,18.77
2022-12-01T21:17:28.775Z,17.03
2022-12-01T21:20:01.810Z,18.97
2022-12-01T21:22:28.709Z,17.30
2022-12-01T21:25:11.276Z,17.83
2022-12-01T21:27:38.175Z,18.60
2022-12-01T21:30:29.510Z,17.37
2022-12-01T21:33:13.884Z,17.70
2022-12-01T21:35:40.715Z,18.07
2022-12-01T21:38:12.329Z,15.97
2022-12-01T21:40:46.671Z,17.37
2022-12-01T21:43:22.747Z,16.60
2022-12-01T21:46:06.761Z,16.20
2022-12-01T21:48:36.893Z,15.53
2022-12-01T21:51:25.020Z,16.20
2022-12-01T21:53:53.792Z,16.43
2022-12-01T21:56:24.113Z,14.87
2022-12-01T21:58:52.489Z,15.73
2022-12-01T22:01:27.149Z,17.33
2022-12-01T22:04:02.280Z,15.47
2022-12-01T22:06:43.363Z,14.70
2022-12-01T22:09:35.828Z,15.67
2022-12-01T22:12:27.805Z,14.90
2022-12-01T22:15:01.191Z,13.53
2022-12-01T22:17:29.481Z,14.77
2022-12-01T22:20:14.973Z,14.30
2022-12-01T22:22:41.852Z,15.23
2022-12-01T22:25:28.522Z,13.67
2022-12-01T22:27:58.722Z,14.53
2022-12-01T22:30:25.711Z,14.77
2022-12-01T22:32:53.211Z,14.73
2022-12-01T22:35:27.447Z,14.73
2022-12-01T22:38:05.989Z,13.43
2022-12-01T22:40:53.754Z,14.90
2022-12-01T22:43:30.231Z,13.43
2022-12-01T22:45:57.449Z,14.37
2022-12-01T22:48:40.777Z,14.63
2022-12-01T22:51:16.617Z,13.00
2022-12-01T22:53:45.955Z,13.43
2022-12-01T22:56:34.347Z,14.87
2022-12-01T22:59:03.114Z,14.60
2022-12-01T23:01:32.606Z,13.90
2022-12-01T23:04:22.537Z,14.20
2022-12-01T23:07:02.233Z,14.40
2022-12-01T23:09:44.091Z,13.63
2022-12-01T23:12:21.974Z,13.87
2022-12-01T23:14:52.010Z,14.03
2022-12-01T23:17:22.828Z,12.83
2022-12-01T23:19:52.497Z,13.07
2022-12-01T23:22:19.427Z,13.13
2022-12-01T23:24:46.766Z,14.20
2022-12-01T23:27:16.196Z,13.13
2022-12-01T23:29:43.317Z,13.60
2022-12-01T23:32:11.807Z,12.57
2022-12-01T23:34:38.781Z,13.43
2022-12-01T23:37:23.381Z,12.60
2022-12-01T23:39:50.992Z,14.20
2022-12-01T23:42:17.838Z,12.87
2022-12-01T23:44:45.674Z,12.43
2022-12-01T23:47:18.418Z,13.50
2022-12-01T23:49:46.913Z,12.50
2022-12-01T23:52:21.107Z,13.80
2022-12-01T23:54:48.860Z,11.70
2022-12-01T23:57:15.849Z,12.60
2022-12-01T23:59:43.529Z,13.30
